createdAt,value
2023-07-24T00:00:30.780Z,4.88
2023-07-24T00:02:58.027Z,4.75
2023-07-24T00:05:25.016Z,5.03
2023-07-24T00:07:52.231Z,6.47
2023-07-24T00:10:19.098Z,4.82
2023-07-24T00:12:45.904Z,4.30
2023-07-24T00:15:12.769Z,4.43
2023-07-24T00:17:39.857Z,4.00
2023-07-24T00:20:07.691Z,4.82
2023-07-24T00:22:34.638Z,4.15
2023-07-24T00:25:01.590Z,3.20
2023-07-24T00:27:28.826Z,4.10
2023-07-24T00:29:55.696Z,4.50
2023-07-24T00:32:23.089Z,3.80
2023-07-24T00:34:49.796Z,3.60
2023-07-24T00:37:17.624Z,5.03
2023-07-24T00:39:44.573Z,5.15
2023-07-24T00:42:11.731Z,3.75
2023-07-24T00:44:38.943Z,3.47
2023-07-24T00:47:06.118Z,5.68
2023-07-24T00:49:33.095Z,4.30
2023-07-24T00:52:00.227Z,4.10
2023-07-24T00:54:28.040Z,5.10
2023-07-24T00:56:54.851Z,3.63
2023-07-24T00:59:22.094Z,3.08
2023-07-24T01:01:48.915Z,3.40
2023-07-24T01:04:16.170Z,3.25
2023-07-24T01:06:42.893Z,3.38
2023-07-24T01:09:09.687Z,6.25
2023-07-24T01:11:48.841Z,3.80
2023-07-24T01:14:24.802Z,3.03
2023-07-24T01:19:22.215Z,3.10
2023-07-24T01:22:04.541Z,5.63
2023-07-24T01:24:37.717Z,3.97
2023-07-24T01:27:04.824Z,2.92
2023-07-24T01:29:32.455Z,3.63
2023-07-24T01:31:59.384Z,3.55
2023-07-24T01:34:26.387Z,3.63
2023-07-24T01:36:53.746Z,3.20
2023-07-24T01:39:22.025Z,3.25
2023-07-24T01:41:48.945Z,3.30
2023-07-24T01:44:15.838Z,3.88
2023-07-24T01:46:42.940Z,2.60
2023-07-24T01:49:09.845Z,3.50
2023-07-24T01:51:36.599Z,4.95
2023-07-24T01:54:03.800Z,5.88
2023-07-24T01:56:30.940Z,4.25
2023-07-24T01:58:58.130Z,3.42
2023-07-24T02:01:25.014Z,3.25
2023-07-24T02:03:52.078Z,6.50
2023-07-24T02:06:19.072Z,4.53
2023-07-24T02:08:49.931Z,3.92
2023-07-24T02:11:17.522Z,3.97
2023-07-24T02:13:45.320Z,4.93
2023-07-24T02:16:15.017Z,4.53
2023-07-24T02:18:43.002Z,3.85
2023-07-24T02:21:10.233Z,3.80
2023-07-24T02:23:37.316Z,5.65
2023-07-24T02:26:05.695Z,7.20
2023-07-24T02:28:35.109Z,3.65
2023-07-24T02:31:02.302Z,4.20
2023-07-24T02:33:29.471Z,5.32
2023-07-24T02:35:57.311Z,3.83
2023-07-24T02:38:24.189Z,3.65
2023-07-24T02:40:51.038Z,6.03
2023-07-24T02:43:17.823Z,4.13
2023-07-24T02:45:44.587Z,4.35
2023-07-24T02:48:11.440Z,4.55
2023-07-24T02:50:38.303Z,3.20
2023-07-24T02:53:05.562Z,9.23
2023-07-24T02:55:32.441Z,4.10
2023-07-24T02:57:59.464Z,4.53
2023-07-24T03:00:26.350Z,4.72
2023-07-24T03:02:54.057Z,4.65
2023-07-24T03:05:21.109Z,5.05
2023-07-24T03:07:47.943Z,3.80
2023-07-24T03:10:14.951Z,5.13
2023-07-24T03:12:41.921Z,4.95
2023-07-24T03:15:09.029Z,5.63
2023-07-24T03:17:36.204Z,5.40
2023-07-24T03:20:14.872Z,5.35
2023-07-24T03:22:42.732Z,4.80
2023-07-24T03:25:09.608Z,9.13
2023-07-24T03:27:36.570Z,6.75
2023-07-24T03:30:04.572Z,7.28
2023-07-24T03:32:31.578Z,6.28
2023-07-24T03:34:58.461Z,6.45
2023-07-24T03:37:25.510Z,7.35
2023-07-24T03:39:54.136Z,5.40
2023-07-24T03:42:27.940Z,6.72
2023-07-24T03:44:55.506Z,9.77
2023-07-24T03:47:22.572Z,6.35
2023-07-24T03:49:49.755Z,8.45
2023-07-24T03:52:16.933Z,8.55
2023-07-24T03:54:43.999Z,7.38
2023-07-24T03:57:11.043Z,7.00
2023-07-24T03:59:37.976Z,8.18
2023-07-24T04:02:04.973Z,7.00
2023-07-24T04:04:32.561Z,8.52
2023-07-24T04:06:59.562Z,8.40
2023-07-24T04:09:26.350Z,6.22
2023-07-24T04:11:53.352Z,8.30
2023-07-24T04:14:20.536Z,8.52
2023-07-24T04:16:47.420Z,6.65
2023-07-24T04:19:14.488Z,5.95
2023-07-24T04:21:41.282Z,10.15
2023-07-24T04:24:08.030Z,8.57
2023-07-24T04:26:36.886Z,7.25
2023-07-24T04:29:04.992Z,7.10
2023-07-24T04:31:32.034Z,8.02
2023-07-24T04:33:58.895Z,8.50
2023-07-24T04:36:25.673Z,7.65
2023-07-24T04:38:52.437Z,12.95
2023-07-24T04:41:19.333Z,7.10
2023-07-24T04:43:46.206Z,7.03
2023-07-24T04:46:12.986Z,12.68
2023-07-24T04:48:39.965Z,8.85
2023-07-24T04:51:07.017Z,11.35
2023-07-24T04:53:34.162Z,12.38
2023-07-24T04:56:00.911Z,16.63
2023-07-24T04:58:27.759Z,11.10
2023-07-24T05:00:54.673Z,12.15
2023-07-24T05:03:21.955Z,12.32
2023-07-24T05:05:49.570Z,15.40
2023-07-24T05:08:16.454Z,16.35
2023-07-24T05:10:43.382Z,12.30
2023-07-24T05:13:12.716Z,11.75
2023-07-24T05:15:41.241Z,14.35
2023-07-24T05:18:08.165Z,12.50
2023-07-24T05:20:34.995Z,11.60
2023-07-24T05:23:02.053Z,10.32
2023-07-24T05:25:28.978Z,9.18
2023-07-24T05:27:55.746Z,10.25
2023-07-24T05:30:23.031Z,9.43
2023-07-24T05:32:49.904Z,9.68
2023-07-24T05:35:18.660Z,10.60
2023-07-24T05:37:45.508Z,10.65
2023-07-24T05:40:12.658Z,11.02
2023-07-24T05:42:42.824Z,10.00
2023-07-24T05:45:09.983Z,11.07
2023-07-24T05:47:37.158Z,11.88
2023-07-24T05:50:04.179Z,10.50
2023-07-24T05:52:31.054Z,9.45
2023-07-24T05:54:57.980Z,12.35
2023-07-24T05:57:24.756Z,9.80
2023-07-24T05:59:54.954Z,12.82
2023-07-24T06:02:22.023Z,13.57
2023-07-24T06:04:48.886Z,11.57
2023-07-24T06:07:16.406Z,16.92
2023-07-24T06:09:43.451Z,11.40
2023-07-24T06:12:10.479Z,18.10
2023-07-24T06:14:37.445Z,13.00
2023-07-24T06:17:04.413Z,15.60
2023-07-24T06:19:31.308Z,16.77
2023-07-24T06:21:58.400Z,15.98
2023-07-24T06:24:25.435Z,12.18
2023-07-24T06:26:52.246Z,14.13
2023-07-24T06:29:19.233Z,14.07
2023-07-24T06:31:46.150Z,15.10
2023-07-24T06:34:12.954Z,15.10
2023-07-24T06:36:39.952Z,16.08
2023-07-24T06:39:06.940Z,16.27
2023-07-24T06:41:33.672Z,15.68
2023-07-24T06:44:01.337Z,13.65
2023-07-24T06:46:28.524Z,16.08
2023-07-24T06:48:57.517Z,11.25
2023-07-24T06:51:26.481Z,11.60
2023-07-24T06:53:53.353Z,12.65
2023-07-24T06:56:20.674Z,13.80
2023-07-24T06:58:47.750Z,13.98
2023-07-24T07:01:14.770Z,14.25
2023-07-24T07:03:41.751Z,20.23
2023-07-24T07:08:54.691Z,15.63
2023-07-24T07:11:22.108Z,15.93
2023-07-24T07:13:53.149Z,17.13
2023-07-24T07:16:20.685Z,15.50
2023-07-24T07:18:47.606Z,14.40
2023-07-24T07:21:14.526Z,17.40
2023-07-24T07:23:41.555Z,16.42
2023-07-24T07:26:08.347Z,17.45
2023-07-24T07:28:35.339Z,16.50
2023-07-24T07:31:02.077Z,16.20
2023-07-24T07:33:30.225Z,15.98
2023-07-24T07:35:59.473Z,13.90
2023-07-24T07:38:26.665Z,13.05
2023-07-24T07:40:53.475Z,15.05
2023-07-24T07:43:20.539Z,14.25
2023-07-24T07:45:47.641Z,17.45
2023-07-24T07:48:14.449Z,13.55
2023-07-24T07:50:41.223Z,15.52
2023-07-24T07:53:09.401Z,13.75
2023-07-24T07:55:36.425Z,14.45
2023-07-24T07:58:03.261Z,14.82
2023-07-24T08:00:30.042Z,16.42
2023-07-24T08:02:57.150Z,14.75
2023-07-24T08:05:24.117Z,14.50
2023-07-24T08:07:50.960Z,12.27
2023-07-24T08:10:18.133Z,19.15
2023-07-24T08:12:45.253Z,13.13
2023-07-24T08:15:12.787Z,14.85
2023-07-24T08:17:39.671Z,15.50
2023-07-24T08:20:07.155Z,12.32
2023-07-24T08:22:34.422Z,17.17
2023-07-24T08:25:02.640Z,16.02
2023-07-24T08:27:29.561Z,13.32
2023-07-24T08:29:56.327Z,16.45
2023-07-24T08:32:23.225Z,13.15
2023-07-24T08:34:50.343Z,15.95
2023-07-24T08:37:17.544Z,13.40
2023-07-24T08:39:44.455Z,13.73
2023-07-24T08:42:12.078Z,11.77
2023-07-24T08:44:39.032Z,17.75
2023-07-24T08:47:08.017Z,13.05
2023-07-24T08:49:35.896Z,13.52
2023-07-24T08:52:03.519Z,16.95
2023-07-24T08:54:31.480Z,13.93
2023-07-24T08:56:58.251Z,9.25
2023-07-24T08:59:25.444Z,13.77
2023-07-24T09:01:53.186Z,12.43
2023-07-24T09:04:23.013Z,12.15
2023-07-24T09:06:51.095Z,15.75
2023-07-24T09:09:18.424Z,11.15
2023-07-24T09:11:53.003Z,9.80
2023-07-24T09:14:27.754Z,10.45
2023-07-24T09:17:05.233Z,10.57
2023-07-24T09:19:32.436Z,12.82
2023-07-24T09:22:12.410Z,8.80
2023-07-24T09:24:39.620Z,11.27
2023-07-24T09:27:08.559Z,11.63
2023-07-24T09:29:36.477Z,8.75
2023-07-24T09:32:03.470Z,9.75
2023-07-24T09:34:30.283Z,8.98
2023-07-24T09:36:57.632Z,8.40
2023-07-24T09:39:29.803Z,7.80
2023-07-24T09:42:06.745Z,7.25
2023-07-24T09:44:33.886Z,8.95
2023-07-24T09:47:23.884Z,8.15
2023-07-24T09:49:48.791Z,10.68
2023-07-24T09:52:19.437Z,11.88
2023-07-24T09:54:55.259Z,15.65
